Time;durP1;ratioP1;P1;durP2;ratioP2;P2;SDS_P1;SDS_P2;PMS_P1;PMS_P2;Temp;Humidity;BMP_temperature;BMP_pressure;BME280_temperature;BME280_humidity;BME280_pressure;Samples;Min_cycle;Max_cycle;Signal;HPM_P1;HPM_P2
2022/12/06 00:01:02;;;;;;;193.25;35.17;;;0.90;99.90;;;;;;5017748;28;20030;-87
2022/12/06 00:03:28;;;;;;;138.93;39.47;;;0.90;99.90;;;;;;5014404;28;20026;-85
2022/12/06 00:05:59;;;;;;;89.00;29.88;;;1.00;99.90;;;;;;5020603;28;20451;-82
2022/12/06 00:08:25;;;;;;;213.75;37.70;;;1.10;99.90;;;;;;5020820;28;20042;-86
2022/12/06 00:10:51;;;;;;;64.97;32.78;;;1.10;99.90;;;;;;5012893;28;20057;-83
2022/12/06 00:13:16;;;;;;;160.65;42.67;;;1.10;99.90;;;;;;5025120;28;20064;-84
2022/12/06 00:15:42;;;;;;;44.30;29.63;;;1.10;99.90;;;;;;5016711;28;20071;-83
2022/12/06 00:18:08;;;;;;;112.22;37.58;;;0.90;99.90;;;;;;5020921;28;20030;-86
2022/12/06 00:20:33;;;;;;;62.40;30.45;;;1.00;99.90;;;;;;5020756;28;20570;-84
2022/12/06 00:22:59;;;;;;;114.28;35.75;;;0.90;99.90;;;;;;5014037;28;20446;-86
2022/12/06 00:25:25;;;;;;;143.70;36.95;;;0.90;99.90;;;;;;5024574;28;20041;-81
2022/12/06 00:27:50;;;;;;;207.98;36.03;;;0.80;99.90;;;;;;5016271;28;20050;-86
2022/12/06 00:30:16;;;;;;;296.02;34.25;;;0.70;99.90;;;;;;5023516;28;20508;-87
2022/12/06 00:32:42;;;;;;;152.07;31.83;;;0.60;99.90;;;;;;5019971;28;20033;-86
2022/12/06 00:35:09;;;;;;;50.28;21.70;;;0.50;99.90;;;;;;5019989;28;20169;-84
2022/12/06 00:37:34;;;;;;;23.70;21.40;;;0.30;99.90;;;;;;5051941;28;20579;-83
2022/12/06 00:40:00;;;;;;;23.80;21.75;;;0.30;99.90;;;;;;5016707;28;20157;-81
2022/12/06 00:42:25;;;;;;;20.80;19.17;;;0.30;99.90;;;;;;5025238;28;20037;-87
2022/12/06 00:44:51;;;;;;;22.48;20.45;;;0.30;99.90;;;;;;5017771;28;20037;-81
2022/12/06 00:47:17;;;;;;;21.60;19.60;;;0.20;99.90;;;;;;5017621;28;20116;-79
2022/12/06 00:49:42;;;;;;;25.65;23.45;;;0.10;99.90;;;;;;5018764;28;20796;-81
2022/12/06 00:52:08;;;;;;;26.55;24.63;;;0.30;99.90;;;;;;5016584;28;20037;-82
2022/12/06 00:54:33;;;;;;;30.83;28.40;;;0.50;99.90;;;;;;5022022;28;20579;-83
2022/12/06 00:56:59;;;;;;;30.30;27.35;;;0.60;99.90;;;;;;5014047;28;20038;-79
2022/12/06 00:59:26;;;;;;;31.25;28.77;;;0.60;99.90;;;;;;5016250;28;20040;-85
2022/12/06 01:01:51;;;;;;;29.27;27.02;;;0.70;99.90;;;;;;5015380;28;20715;-82
2022/12/06 01:04:17;;;;;;;27.73;25.13;;;0.80;99.90;;;;;;5014029;28;20030;-81
2022/12/06 01:06:42;;;;;;;32.05;29.63;;;0.70;99.90;;;;;;5010867;28;20038;-87
2022/12/06 01:09:09;;;;;;;30.25;27.75;;;0.70;99.90;;;;;;5015902;28;20427;-83
2022/12/06 01:11:35;;;;;;;25.00;23.00;;;0.70;99.90;;;;;;5021894;28;20038;-87
2022/12/06 01:14:02;;;;;;;30.45;27.67;;;0.80;99.90;;;;;;5013257;28;20125;-85
2022/12/06 01:16:29;;;;;;;31.85;29.40;;;0.80;99.90;;;;;;5022343;28;20033;-82
2022/12/06 01:18:58;;;;;;;29.50;26.88;;;0.90;99.90;;;;;;5017973;28;20037;-83
2022/12/06 01:21:25;;;;;;;26.08;23.50;;;0.90;99.90;;;;;;5012865;28;20080;-81
2022/12/06 01:23:53;;;;;;;30.45;28.20;;;1.00;99.90;;;;;;5019150;28;20441;-80
2022/12/06 01:26:31;;;;;;;26.45;23.52;;;1.00;99.90;;;;;;5026682;28;20046;-84
2022/12/06 01:28:58;;;;;;;24.67;21.70;;;1.00;99.90;;;;;;5023203;28;20124;-83
2022/12/06 01:31:23;;;;;;;29.92;27.02;;;1.00;99.90;;;;;;5011798;28;20050;-84
2022/12/06 01:33:49;;;;;;;25.48;22.92;;;1.10;99.90;;;;;;5014195;28;20710;-85
2022/12/06 01:36:19;;;;;;;29.92;27.33;;;1.00;99.90;;;;;;5011497;28;20036;-85
2022/12/06 01:38:50;;;;;;;25.15;22.85;;;1.00;99.90;;;;;;5018672;28;20037;-82
2022/12/06 01:41:16;;;;;;;;;;;1.00;99.90;;;;;;5018469;28;20030;-84
2022/12/06 01:43:43;;;;;;;18.38;15.77;;;1.10;99.90;;;;;;5007500;28;19918;-82
2022/12/06 01:46:29;;;;;;;32.08;24.33;;;1.10;99.90;;;;;;5019586;28;20060;-81
2022/12/06 01:49:11;;;;;;;26.92;24.13;;;1.10;99.90;;;;;;5013216;28;20029;-81
2022/12/06 01:51:39;;;;;;;29.58;26.60;;;1.10;99.90;;;;;;5025482;28;20034;-85
2022/12/06 01:54:09;;;;;;;28.90;26.25;;;1.20;99.90;;;;;;5018343;28;20026;-84
2022/12/06 01:56:35;;;;;;;36.45;33.25;;;1.20;99.90;;;;;;5015920;28;20041;-81
2022/12/06 01:59:01;;;;;;;34.97;32.20;;;1.20;99.90;;;;;;5019868;28;20176;-87
2022/12/06 02:01:29;;;;;;;32.25;29.80;;;1.20;99.90;;;;;;5015812;28;20087;-85
2022/12/06 02:03:57;;;;;;;33.03;29.77;;;1.20;99.90;;;;;;5023220;28;20476;-83
2022/12/06 02:06:24;;;;;;;35.65;32.67;;;1.20;99.90;;;;;;5013728;28;20484;-81
2022/12/06 02:08:52;;;;;;;31.60;28.45;;;1.20;99.90;;;;;;5017008;28;20072;-81
2022/12/06 02:11:17;;;;;;;34.95;31.73;;;1.10;99.90;;;;;;5012139;28;20124;-84
2022/12/06 02:13:43;;;;;;;31.23;28.55;;;1.10;99.90;;;;;;5020774;28;20638;-81
2022/12/06 02:16:46;;;;;;;29.50;27.15;;;1.00;99.90;;;;;;5014940;28;20030;-84
2022/12/06 02:19:36;;;;;;;26.40;23.65;;;1.00;99.90;;;;;;5016877;28;20399;-83
2022/12/06 02:22:21;;;;;;;24.53;21.53;;;0.90;99.90;;;;;;5018130;28;20033;-83
2022/12/06 02:25:04;;;;;;;23.65;21.23;;;0.80;99.90;;;;;;5018164;28;20280;-81
2022/12/06 02:27:49;;;;;;;23.70;21.35;;;0.70;99.90;;;;;;5018003;28;20058;-87
2022/12/06 02:30:43;;;;;;;26.50;24.02;;;0.70;99.90;;;;;;5011030;28;20068;-81
2022/12/06 02:33:23;;;;;;;22.65;20.52;;;0.60;99.90;;;;;;5015889;28;20046;-80
2022/12/06 02:35:56;;;;;;;23.95;21.52;;;0.50;99.90;;;;;;5008523;28;20025;-81
2022/12/06 02:38:37;;;;;;;23.15;20.73;;;0.40;99.90;;;;;;5017991;28;20049;-82
2022/12/06 02:41:11;;;;;;;22.30;20.00;;;0.30;99.90;;;;;;5008734;28;20035;-82
2022/12/06 02:43:41;;;;;;;22.85;20.52;;;0.30;99.90;;;;;;5015492;28;20042;-86
2022/12/06 02:46:10;;;;;;;20.10;18.33;;;0.20;99.90;;;;;;5017476;28;20030;-83
2022/12/06 02:48:37;;;;;;;26.40;21.80;;;0.20;99.90;;;;;;5016901;28;20073;-84
2022/12/06 02:51:09;;;;;;;23.98;21.85;;;0.10;99.90;;;;;;5020093;28;20570;-82
2022/12/06 02:53:39;;;;;;;22.95;21.08;;;0.20;99.90;;;;;;5018359;28;20040;-82
2022/12/06 02:56:05;;;;;;;28.70;26.03;;;0.20;99.90;;;;;;5017441;28;20129;-83
2022/12/06 02:58:37;;;;;;;28.02;25.25;;;0.30;99.90;;;;;;4992954;28;20121;-86
2022/12/06 03:01:12;;;;;;;27.75;25.17;;;0.30;99.90;;;;;;5018229;28;20033;-86
2022/12/06 03:04:03;;;;;;;25.23;22.58;;;0.40;99.90;;;;;;5014653;28;20038;-84
2022/12/06 03:06:32;;;;;;;130.75;30.13;;;0.40;99.90;;;;;;5016987;28;20033;-83
2022/12/06 03:09:04;;;;;;;120.60;52.13;;;0.40;99.90;;;;;;5011090;28;20026;-86
2022/12/06 03:11:58;;;;;;;203.93;33.10;;;0.40;99.90;;;;;;5012620;28;20029;-86
2022/12/06 03:14:26;;;;;;;266.65;37.80;;;0.30;99.90;;;;;;5018680;28;20034;-85
2022/12/06 03:17:02;;;;;;;284.00;37.97;;;0.40;99.90;;;;;;5012669;28;20745;-84
2022/12/06 03:19:30;;;;;;;387.58;81.10;;;0.30;99.90;;;;;;5017289;28;20052;-84
2022/12/06 03:22:07;;;;;;;258.35;42.35;;;0.10;99.90;;;;;;5014344;28;20036;-85
2022/12/06 03:24:36;;;;;;;160.23;34.67;;;0.10;99.90;;;;;;5021002;28;20685;-82
2022/12/06 03:27:08;;;;;;;145.00;38.97;;;0.00;99.90;;;;;;5012645;28;20061;-86
2022/12/06 03:29:38;;;;;;;193.90;35.42;;;-0.10;99.90;;;;;;5016021;28;20061;-83
2022/12/06 03:32:05;;;;;;;260.48;47.30;;;-0.20;99.90;;;;;;5014040;28;20073;-86
2022/12/06 03:34:44;;;;;;;206.18;36.05;;;-0.30;99.90;;;;;;5000483;28;20038;-84
2022/12/06 03:37:14;;;;;;;145.02;35.80;;;-0.30;99.90;;;;;;5018838;28;20504;-85
2022/12/06 03:40:02;;;;;;;103.70;29.58;;;-0.40;99.90;;;;;;5012101;28;20385;-83
2022/12/06 03:42:29;;;;;;;77.50;30.52;;;-0.40;99.90;;;;;;5017779;28;20041;-84
2022/12/06 03:44:55;;;;;;;137.07;27.98;;;-0.40;99.90;;;;;;4993571;28;20045;-82
2022/12/06 03:47:32;;;;;;;88.47;32.05;;;-0.40;99.90;;;;;;5016908;28;20462;-82
2022/12/06 03:50:03;;;;;;;77.68;24.75;;;-0.50;99.90;;;;;;5011906;28;20037;-83
2022/12/06 03:52:29;;;;;;;106.30;30.60;;;-0.50;99.90;;;;;;5016094;28;20038;-80
2022/12/06 03:54:55;;;;;;;57.20;25.15;;;-0.50;99.90;;;;;;5014772;28;20088;-81
2022/12/06 03:57:21;;;;;;;58.10;23.88;;;-0.60;99.90;;;;;;5009534;28;20021;-83
2022/12/06 03:59:47;;;;;;;93.60;24.75;;;-0.60;99.90;;;;;;5016900;28;20536;-86
2022/12/06 04:02:12;;;;;;;213.27;32.35;;;-0.50;99.90;;;;;;5011742;28;20087;-81
2022/12/06 04:04:39;;;;;;;187.85;36.40;;;-0.50;99.90;;;;;;5018938;28;20034;-83
2022/12/06 04:07:05;;;;;;;81.70;29.00;;;-0.50;99.90;;;;;;5015234;28;20045;-86
2022/12/06 04:14:59;;;;;;;287.27;31.50;;;-0.30;99.90;;;;;;5009377;28;20168;-82
2022/12/06 04:20:08;;;;;;;331.58;36.67;;;-0.30;99.90;;;;;;5011618;28;20045;-81
2022/12/06 04:25:18;;;;;;;353.23;52.75;;;-0.20;99.90;;;;;;5012396;28;20701;-81
2022/12/06 04:38:41;;;;;;;228.80;36.63;;;-0.20;99.90;;;;;;5019710;28;20574;-85
2022/12/06 04:41:08;;;;;;;408.48;237.25;;;-0.20;99.90;;;;;;5016018;28;20041;-87
2022/12/06 04:43:42;;;;;;;81.95;27.00;;;-0.30;99.90;;;;;;5010441;28;20083;-82
2022/12/06 04:46:13;;;;;;;195.63;38.67;;;-0.20;99.90;;;;;;5016618;28;20053;-85
2022/12/06 04:48:39;;;;;;;98.22;26.90;;;-0.20;99.90;;;;;;5005573;28;20127;-88
2022/12/06 04:51:05;;;;;;;238.35;37.60;;;-0.20;99.90;;;;;;5018571;28;20105;-87
2022/12/06 04:53:31;;;;;;;147.68;30.65;;;-0.30;99.90;;;;;;5012554;28;20477;-81
2022/12/06 04:55:57;;;;;;;71.95;33.40;;;-0.40;99.90;;;;;;5016297;28;20017;-82
2022/12/06 04:58:25;;;;;;;62.58;26.52;;;-0.40;99.90;;;;;;5016322;28;20026;-86
2022/12/06 05:00:53;;;;;;;186.05;38.75;;;-0.50;99.90;;;;;;5010274;28;20034;-88
2022/12/06 05:03:19;;;;;;;148.48;31.25;;;-0.50;99.90;;;;;;5022932;28;20040;-81
2022/12/06 05:05:45;;;;;;;134.10;33.03;;;-0.50;99.90;;;;;;5014441;28;20409;-81
2022/12/06 05:08:11;;;;;;;91.70;30.70;;;-0.50;99.90;;;;;;5025555;28;20539;-87
2022/12/06 05:10:37;;;;;;;25.92;24.02;;;-0.50;99.90;;;;;;5017705;28;20103;-83
2022/12/06 05:13:05;;;;;;;146.40;33.50;;;-0.40;99.90;;;;;;5022366;28;20032;-83
2022/12/06 05:15:32;;;;;;;68.50;30.10;;;-0.40;99.90;;;;;;5017284;28;20053;-78
2022/12/06 05:18:05;;;;;;;144.10;29.63;;;-0.40;99.90;;;;;;5017020;28;20036;-84
2022/12/06 05:20:30;;;;;;;110.70;29.63;;;-0.40;99.90;;;;;;5016295;28;20037;-82
2022/12/06 05:23:02;;;;;;;171.20;31.95;;;-0.50;99.90;;;;;;4997727;28;20030;-86
2022/12/06 05:25:29;;;;;;;105.82;39.83;;;-0.50;99.90;;;;;;5001973;28;20070;-84
2022/12/06 05:27:55;;;;;;;120.10;47.67;;;-0.50;99.90;;;;;;5012276;28;20061;-87
2022/12/06 05:30:20;;;;;;;135.23;35.25;;;-0.50;99.90;;;;;;5003317;28;20045;-88
2022/12/06 05:32:46;;;;;;;58.85;28.85;;;-0.40;99.90;;;;;;5014152;28;20519;-85
2022/12/06 05:35:12;;;;;;;125.93;30.27;;;-0.30;99.90;;;;;;5020259;28;20025;-82
2022/12/06 05:37:37;;;;;;;168.02;30.60;;;-0.30;99.90;;;;;;5023255;28;20057;-87
2022/12/06 05:40:06;;;;;;;115.60;33.28;;;-0.30;99.90;;;;;;5017220;28;20026;-84
2022/12/06 05:42:34;;;;;;;78.05;27.33;;;-0.30;99.90;;;;;;5021675;28;20030;-90
2022/12/06 05:45:00;;;;;;;141.32;37.55;;;-0.30;99.90;;;;;;4995578;28;20022;-88
2022/12/06 05:47:25;;;;;;;165.95;35.17;;;-0.40;99.90;;;;;;5017023;28;20084;-83
2022/12/06 05:49:51;;;;;;;104.95;30.30;;;-0.30;99.90;;;;;;5021649;28;20084;-84
2022/12/06 05:52:18;;;;;;;158.27;41.17;;;-0.30;99.90;;;;;;5017478;28;20033;-83
2022/12/06 05:54:44;;;;;;;85.50;31.58;;;-0.30;99.90;;;;;;5021699;28;20060;-82
2022/12/06 05:57:10;;;;;;;171.43;41.03;;;-0.20;99.90;;;;;;5014305;28;20056;-89
2022/12/06 05:59:36;;;;;;;86.88;33.70;;;-0.20;99.90;;;;;;5020175;28;20530;-90
2022/12/06 06:02:02;;;;;;;104.97;31.20;;;-0.20;99.90;;;;;;5013252;28;20401;-82
2022/12/06 06:04:27;;;;;;;105.03;36.65;;;-0.20;99.90;;;;;;5011003;28;20037;-80
2022/12/06 06:06:53;;;;;;;135.82;31.45;;;-0.20;99.90;;;;;;5020319;28;20053;-82
2022/12/06 06:09:19;;;;;;;135.23;31.65;;;-0.20;99.90;;;;;;5025686;28;20080;-86
2022/12/06 06:11:44;;;;;;;146.85;31.38;;;-0.20;99.90;;;;;;5026415;28;20050;-81
2022/12/06 06:14:10;;;;;;;164.50;32.22;;;-0.20;99.90;;;;;;5022102;28;20511;-81
2022/12/06 06:16:36;;;;;;;75.05;35.95;;;-0.20;99.90;;;;;;5009110;28;20033;-83
2022/12/06 06:19:02;;;;;;;91.75;32.47;;;-0.20;99.90;;;;;;5014154;28;20030;-86
2022/12/06 06:21:28;;;;;;;179.40;34.17;;;-0.20;99.90;;;;;;5008149;28;20085;-82
2022/12/06 06:23:56;;;;;;;67.45;28.70;;;-0.20;99.90;;;;;;5012597;28;20046;-85
2022/12/06 06:26:22;;;;;;;60.60;29.58;;;-0.20;99.90;;;;;;5009216;28;20029;-87
2022/12/06 06:28:47;;;;;;;88.32;30.02;;;-0.20;99.90;;;;;;5009158;28;20420;-82
2022/12/06 06:31:14;;;;;;;74.45;29.30;;;-0.10;99.90;;;;;;5017892;28;20073;-84
2022/12/06 06:33:40;;;;;;;76.72;28.60;;;-0.10;99.90;;;;;;5004154;28;20389;-87
2022/12/06 06:36:06;;;;;;;49.85;28.67;;;-0.10;99.90;;;;;;5021087;28;20049;-84
2022/12/06 06:38:31;;;;;;;94.43;29.75;;;-0.10;99.90;;;;;;5013989;28;20041;-86
2022/12/06 06:41:01;;;;;;;48.88;26.23;;;-0.20;99.90;;;;;;5001365;28;20022;-87
2022/12/06 06:43:29;;;;;;;26.98;24.60;;;0.00;99.90;;;;;;5009341;28;20085;-82
2022/12/06 06:45:57;;;;;;;30.17;25.88;;;0.00;99.90;;;;;;4991791;28;20042;-87
2022/12/06 06:48:24;;;;;;;40.25;23.73;;;0.10;99.90;;;;;;5003264;28;20762;-83
2022/12/06 06:50:50;;;;;;;29.92;27.52;;;0.00;99.90;;;;;;5005091;28;20039;-85
2022/12/06 06:53:16;;;;;;;37.45;26.42;;;0.00;99.90;;;;;;5018135;28;20033;-86
2022/12/06 06:55:45;;;;;;;35.10;26.55;;;0.10;99.90;;;;;;5003285;28;20527;-83
2022/12/06 06:58:29;;;;;;;27.95;25.83;;;0.10;99.90;;;;;;5016261;28;20069;-90
2022/12/06 07:00:58;;;;;;;26.27;23.77;;;0.20;99.90;;;;;;5002956;28;20037;-91
2022/12/06 07:03:24;;;;;;;36.58;26.30;;;0.20;99.90;;;;;;5012150;28;20021;-89
2022/12/06 07:05:52;;;;;;;31.70;28.58;;;0.10;99.90;;;;;;5049729;28;20056;-86
2022/12/06 07:08:17;;;;;;;28.67;26.40;;;0.10;99.90;;;;;;5004938;28;20026;-88
2022/12/06 07:10:47;;;;;;;24.77;22.75;;;0.10;99.90;;;;;;5004469;28;20092;-89
2022/12/06 07:13:14;;;;;;;24.50;22.70;;;0.10;99.90;;;;;;5012331;28;20038;-89
2022/12/06 07:15:40;;;;;;;27.85;25.55;;;0.10;99.90;;;;;;5020720;28;20096;-89
2022/12/06 07:18:05;;;;;;;26.83;24.80;;;0.10;99.90;;;;;;5009480;28;20034;-89
2022/12/06 07:20:31;;;;;;;30.00;26.98;;;0.20;99.90;;;;;;4997837;28;20033;-89
2022/12/06 07:22:57;;;;;;;27.88;25.88;;;0.30;99.90;;;;;;5010960;28;20030;-88
2022/12/06 07:25:22;;;;;;;28.95;26.83;;;0.40;99.90;;;;;;5011268;28;20033;-90
2022/12/06 07:27:48;;;;;;;29.50;27.38;;;0.40;99.90;;;;;;5019261;28;20064;-89
2022/12/06 07:30:14;;;;;;;30.33;27.77;;;0.50;99.90;;;;;;4993414;28;20053;-90
2022/12/06 07:32:40;;;;;;;29.02;26.85;;;0.40;99.90;;;;;;5017524;28;20025;-88
2022/12/06 07:35:06;;;;;;;29.40;26.92;;;0.40;99.90;;;;;;5000837;28;20167;-88
2022/12/06 07:37:31;;;;;;;28.13;25.77;;;0.50;99.90;;;;;;4999441;28;20023;-88
2022/12/06 07:39:58;;;;;;;36.42;33.72;;;0.40;99.90;;;;;;5004579;28;20631;-87
2022/12/06 07:45:11;;;;;;;35.15;31.88;;;0.50;99.90;;;;;;5020863;28;20084;-88
2022/12/06 07:47:42;;;;;;;29.65;27.35;;;0.20;99.90;;;;;;5001175;28;20511;-89
2022/12/06 07:50:11;;;;;;;26.45;24.27;;;0.30;99.90;;;;;;5013440;28;20042;-87
2022/12/06 07:52:37;;;;;;;29.40;26.70;;;0.30;99.90;;;;;;5018512;28;20068;-87
2022/12/06 07:55:05;;;;;;;34.70;32.00;;;0.30;99.90;;;;;;5013289;28;20057;-88
2022/12/06 07:57:31;;;;;;;31.40;28.30;;;0.30;99.90;;;;;;5015497;28;20092;-89
2022/12/06 07:59:57;;;;;;;34.30;31.33;;;0.50;99.90;;;;;;5011858;28;20056;-87
2022/12/06 08:02:27;;;;;;;30.80;28.27;;;0.70;99.90;;;;;;4995791;28;20426;-87
2022/12/06 08:04:53;;;;;;;28.87;26.60;;;0.70;99.90;;;;;;5006747;28;20038;-88
2022/12/06 08:07:20;;;;;;;29.48;27.20;;;0.70;99.90;;;;;;5009659;28;20056;-88
2022/12/06 08:09:47;;;;;;;30.77;28.38;;;0.90;99.90;;;;;;5016030;28;20037;-86
2022/12/06 08:12:14;;;;;;;33.50;30.83;;;1.10;99.90;;;;;;5011579;28;20064;-88
2022/12/06 08:14:39;;;;;;;29.10;26.67;;;1.10;99.90;;;;;;5011121;28;20026;-89
2022/12/06 08:17:05;;;;;;;24.42;22.30;;;1.10;99.90;;;;;;5007366;28;20477;-89
2022/12/06 08:19:32;;;;;;;30.88;28.48;;;1.10;99.90;;;;;;5016527;28;20029;-88
2022/12/06 08:21:59;;;;;;;33.47;30.70;;;1.00;99.90;;;;;;5012083;28;20381;-89
2022/12/06 08:24:24;;;;;;;31.63;29.25;;;0.90;99.90;;;;;;5018027;28;20033;-88
2022/12/06 08:26:51;;;;;;;35.38;32.22;;;0.90;99.90;;;;;;5013564;28;20037;-88
2022/12/06 08:29:17;;;;;;;24.95;22.75;;;0.80;99.90;;;;;;5011835;28;20072;-88
2022/12/06 08:31:47;;;;;;;30.15;27.52;;;0.80;99.90;;;;;;5012916;28;20037;-87
2022/12/06 08:34:14;;;;;;;27.38;25.15;;;0.90;99.90;;;;;;4999277;28;20022;-88
2022/12/06 08:36:40;;;;;;;28.70;26.13;;;0.80;99.90;;;;;;5023791;28;20042;-87
2022/12/06 08:39:10;;;;;;;30.92;28.38;;;0.80;99.90;;;;;;5010787;28;20727;-90
2022/12/06 08:44:20;;;;;;;28.73;26.17;;;0.90;99.90;;;;;;5000477;28;20060;-89
2022/12/06 08:46:46;;;;;;;27.85;25.65;;;1.00;99.90;;;;;;5022522;28;20042;-88
2022/12/06 08:49:14;;;;;;;28.13;25.63;;;1.00;99.90;;;;;;5022778;28;20049;-89
2022/12/06 08:51:39;;;;;;;27.23;24.83;;;1.00;99.90;;;;;;5010404;28;20037;-88
2022/12/06 08:54:07;;;;;;;28.45;26.08;;;0.90;99.90;;;;;;5020920;28;20025;-88
2022/12/06 08:56:34;;;;;;;31.98;29.58;;;0.90;99.90;;;;;;5017315;28;20026;-89
2022/12/06 08:59:00;;;;;;;29.48;27.20;;;1.00;99.90;;;;;;5011749;28;20476;-88
2022/12/06 09:01:29;;;;;;;26.35;24.15;;;1.00;99.90;;;;;;5021461;28;20048;-89
2022/12/06 09:03:57;;;;;;;30.13;27.58;;;1.10;99.90;;;;;;4996076;28;20099;-88
2022/12/06 09:06:22;;;;;;;24.95;22.85;;;1.10;99.90;;;;;;5009114;28;20021;-89
2022/12/06 09:08:48;;;;;;;34.28;32.15;;;1.10;99.90;;;;;;5010440;28;20030;-87
2022/12/06 09:11:15;;;;;;;23.48;21.52;;;1.10;99.90;;;;;;5009401;28;20077;-89
2022/12/06 09:13:41;;;;;;;27.95;25.45;;;1.10;99.90;;;;;;5015739;28;20029;-88
2022/12/06 09:16:14;;;;;;;26.42;24.40;;;1.20;99.90;;;;;;5010194;28;20026;-88
2022/12/06 09:18:41;;;;;;;21.73;19.08;;;1.20;99.90;;;;;;5008975;28;20502;-90
2022/12/06 09:21:08;;;;;;;26.95;24.70;;;1.20;99.90;;;;;;5012089;28;20165;-89
2022/12/06 09:23:35;;;;;;;26.55;24.25;;;1.20;99.90;;;;;;5020450;28;20060;-87
2022/12/06 09:26:02;;;;;;;25.85;23.92;;;1.30;99.90;;;;;;5016251;28;20018;-89
2022/12/06 09:28:29;;;;;;;26.90;25.00;;;1.30;99.90;;;;;;5024087;28;20499;-88
2022/12/06 09:30:57;;;;;;;24.45;22.35;;;1.40;99.90;;;;;;5032923;28;20049;-88
2022/12/06 09:33:23;;;;;;;18.58;16.85;;;1.40;99.90;;;;;;5019094;28;20025;-88
2022/12/06 09:35:52;;;;;;;27.35;24.98;;;1.40;99.90;;;;;;5001355;28;20037;-89
2022/12/06 09:38:25;;;;;;;25.08;22.60;;;1.50;99.90;;;;;;4982203;28;20053;-88
2022/12/06 09:41:22;;;;;;;25.27;23.08;;;1.60;99.90;;;;;;5013408;28;20018;-89
2022/12/06 09:44:23;;;;;;;20.98;19.10;;;1.60;99.90;;;;;;5012651;28;20029;-89
2022/12/06 09:46:54;;;;;;;15.32;13.73;;;1.70;99.90;;;;;;5005660;28;20037;-87
2022/12/06 09:49:35;;;;;;;12.35;11.15;;;1.60;99.90;;;;;;5016807;28;20060;-89
2022/12/06 09:52:25;;;;;;;13.38;11.23;;;1.60;99.90;;;;;;5015518;28;20127;-87
2022/12/06 09:54:56;;;;;;;16.40;13.75;;;1.50;99.90;;;;;;5005897;28;20022;-90
2022/12/06 09:58:14;;;;;;;14.65;13.25;;;1.60;99.90;;;;;;5016803;28;20055;-89
2022/12/06 10:01:19;;;;;;;15.85;14.23;;;1.70;99.90;;;;;;5014681;28;20045;-88
2022/12/06 10:04:10;;;;;;;18.23;16.67;;;1.80;99.90;;;;;;5022616;28;20125;-84
2022/12/06 10:06:49;;;;;;;11.55;10.25;;;2.10;99.90;;;;;;5011660;28;20065;-85
2022/12/06 10:09:59;;;;;;;11.68;10.00;;;1.90;99.90;;;;;;5025624;28;20057;-87
2022/12/06 10:13:10;;;;;;;13.63;10.00;;;1.90;99.90;;;;;;5010744;28;20104;-87
2022/12/06 10:15:50;;;;;;;13.20;10.57;;;1.90;99.90;;;;;;5004650;28;20038;-87
2022/12/06 10:18:42;;;;;;;13.75;12.30;;;2.10;99.90;;;;;;5005264;28;20037;-87
2022/12/06 10:21:16;;;;;;;11.30;9.55;;;2.30;99.90;;;;;;5022174;28;20402;-89
2022/12/06 10:24:05;;;;;;;14.80;13.38;;;2.10;99.90;;;;;;5017898;28;20044;-89
2022/12/06 10:26:40;;;;;;;11.52;10.43;;;2.20;99.90;;;;;;5016198;28;20030;-88
2022/12/06 10:29:18;;;;;;;10.05;9.05;;;2.20;99.90;;;;;;5015283;28;20042;-90
2022/12/06 10:32:05;;;;;;;15.35;11.35;;;2.10;99.90;;;;;;5015818;28;20034;-89
2022/12/06 10:34:55;;;;;;;12.80;9.50;;;2.20;99.90;;;;;;5018365;28;20055;-87
2022/12/06 10:37:26;;;;;;;12.75;10.98;;;2.10;99.90;;;;;;5009487;28;20032;-88
2022/12/06 10:40:12;;;;;;;12.25;10.57;;;1.90;99.90;;;;;;5016859;28;20056;-87
2022/12/06 10:42:43;;;;;;;12.45;10.50;;;1.90;99.90;;;;;;5015175;28;20037;-89
2022/12/06 10:48:33;;;;;;;16.42;13.45;;;2.00;99.90;;;;;;5009639;28;20048;-88
2022/12/06 10:51:12;;;;;;;14.82;11.80;;;2.20;99.90;;;;;;5015567;28;20029;-89
2022/12/06 10:53:50;;;;;;;18.50;16.95;;;2.30;99.90;;;;;;5009604;28;20106;-91
2022/12/06 10:56:25;;;;;;;18.45;16.73;;;2.40;99.90;;;;;;5020029;28;20025;-88
2022/12/06 10:59:01;;;;;;;18.88;13.10;;;2.50;99.90;;;;;;5011569;28;20021;-90
2022/12/06 11:01:33;;;;;;;12.43;11.18;;;2.40;99.90;;;;;;5017089;28;20026;-87
2022/12/06 11:04:09;;;;;;;13.70;12.40;;;2.30;99.90;;;;;;5012587;28;20026;-88
2022/12/06 11:07:26;;;;;;;14.57;12.98;;;2.20;99.90;;;;;;5018138;28;20120;-88
2022/12/06 11:09:55;;;;;;;17.80;12.65;;;2.20;99.90;;;;;;5015419;28;20518;-89
2022/12/06 11:12:26;;;;;;;16.63;14.93;;;2.20;99.90;;;;;;4997720;28;20069;-88
2022/12/06 11:14:55;;;;;;;;;;;2.40;99.90;;;;;;5019203;28;20423;-89
2022/12/06 11:17:23;;;;;;;11.68;10.48;;;2.50;99.90;;;;;;5015176;28;20368;-88
2022/12/06 11:19:58;;;;;;;18.58;12.18;;;2.70;99.90;;;;;;5020863;28;20030;-89
2022/12/06 11:22:36;;;;;;;16.13;13.68;;;2.50;99.90;;;;;;4997833;28;20031;-85
2022/12/06 11:25:08;;;;;;;14.15;11.88;;;2.60;99.90;;;;;;5001582;28;20122;-88
2022/12/06 11:27:50;;;;;;;18.33;16.42;;;2.50;99.90;;;;;;5006654;28;20546;-89
2022/12/06 11:30:19;;;;;;;13.45;12.20;;;2.50;99.90;;;;;;5008486;28;20041;-88
2022/12/06 11:32:47;;;;;;;18.35;12.73;;;2.50;99.90;;;;;;5010677;28;20121;-90
2022/12/06 11:35:18;;;;;;;15.25;12.75;;;2.50;99.90;;;;;;5027799;28;20496;-89
2022/12/06 11:37:59;;;;;;;14.35;12.85;;;2.60;99.90;;;;;;5016732;28;20384;-91
2022/12/06 11:40:29;;;;;;;;;;;2.60;99.90;;;;;;5009445;28;20048;-89
2022/12/06 11:42:59;;;;;;;18.75;12.02;;;2.50;99.90;;;;;;5014170;28;20003;-91
2022/12/06 11:45:28;;;;;;;15.63;13.47;;;2.50;99.90;;;;;;5011650;28;20504;-91
2022/12/06 11:47:55;;;;;;;19.77;13.98;;;2.60;99.90;;;;;;5013169;28;20037;-89
2022/12/06 11:50:22;;;;;;;20.90;15.23;;;2.70;99.90;;;;;;5012880;28;20411;-89
2022/12/06 11:53:01;;;;;;;20.67;18.48;;;2.70;99.90;;;;;;5008635;28;20033;-90
2022/12/06 11:55:33;;;;;;;22.52;13.95;;;2.70;99.90;;;;;;5009057;28;20028;-90
2022/12/06 11:58:25;;;;;;;22.88;13.82;;;2.80;99.90;;;;;;5013803;28;20037;-89
2022/12/06 12:00:56;;;;;;;24.70;15.50;;;2.80;99.90;;;;;;5004989;28;20061;-89
2022/12/06 12:03:28;;;;;;;19.15;12.77;;;2.80;99.90;;;;;;5011513;28;20034;-91
2022/12/06 12:06:25;;;;;;;26.25;23.50;;;3.10;99.90;;;;;;5011910;28;20021;-90
2022/12/06 12:09:05;;;;;;;20.10;16.30;;;3.50;99.90;;;;;;5008458;28;20038;-89
2022/12/06 12:11:38;;;;;;;17.10;13.87;;;3.80;99.90;;;;;;5001006;28;20462;-90
2022/12/06 12:14:14;;;;;;;23.17;18.17;;;3.80;99.90;;;;;;5010840;28;20527;-90
2022/12/06 12:16:47;;;;;;;20.33;14.60;;;4.10;99.90;;;;;;5012530;28;20555;-92
2022/12/06 12:19:45;;;;;;;16.55;13.73;;;4.40;99.90;;;;;;5017645;28;20025;-90
2022/12/06 12:22:20;;;;;;;20.63;14.93;;;4.50;99.90;;;;;;5000523;28;20411;-88
2022/12/06 12:24:47;;;;;;;16.60;14.75;;;4.40;99.90;;;;;;5012894;28;20117;-88
2022/12/06 12:27:39;;;;;;;17.88;14.73;;;4.70;99.90;;;;;;5017437;28;20033;-90
2022/12/06 12:30:23;;;;;;;22.23;14.93;;;4.70;99.90;;;;;;4999875;28;20049;-87
2022/12/06 12:33:14;;;;;;;19.40;13.95;;;4.50;99.90;;;;;;5014016;28;20113;-88
2022/12/06 12:35:42;;;;;;;14.63;13.30;;;4.30;99.90;;;;;;5044591;28;20141;-88
2022/12/06 12:38:20;;;;;;;16.25;12.57;;;4.00;99.90;;;;;;5008337;28;20038;-88
2022/12/06 12:41:00;;;;;;;15.52;13.20;;;3.80;99.90;;;;;;5014457;28;20452;-87
2022/12/06 12:43:30;;;;;;;18.83;13.63;;;3.70;99.90;;;;;;5006226;28;20495;-87
2022/12/06 12:46:10;;;;;;;13.73;12.27;;;3.70;99.90;;;;;;5015219;28;20475;-91
2022/12/06 12:48:38;;;;;;;;;;;3.70;99.90;;;;;;5011405;28;20034;-84
2022/12/06 12:51:29;;;;;;;14.18;12.50;;;3.70;99.90;;;;;;5014909;28;20677;-87
2022/12/06 12:53:57;;;;;;;;;;;3.80;99.90;;;;;;5011584;28;20042;-82
2022/12/06 12:56:22;;;;;;;21.17;11.18;;;3.70;99.90;;;;;;5013879;28;19932;-87
2022/12/06 12:58:53;;;;;;;14.25;12.18;;;3.60;99.90;;;;;;5012229;28;20455;-83
2022/12/06 13:01:40;;;;;;;17.75;12.35;;;3.60;99.90;;;;;;5012995;28;20026;-89
2022/12/06 13:04:31;;;;;;;16.73;12.68;;;3.60;99.90;;;;;;5010538;28;20387;-82
2022/12/06 13:07:08;;;;;;;16.35;11.85;;;3.60;99.90;;;;;;5017490;28;20557;-82
2022/12/06 13:10:02;;;;;;;16.92;11.77;;;3.60;99.90;;;;;;5017697;28;20237;-85
2022/12/06 13:13:04;;;;;;;15.05;11.68;;;3.60;99.90;;;;;;5009071;28;20125;-85
2022/12/06 13:15:45;;;;;;;11.18;10.07;;;3.70;99.90;;;;;;5018020;28;20037;-82
2022/12/06 13:18:20;;;;;;;12.13;10.57;;;3.80;99.90;;;;;;5011491;28;20037;-83
2022/12/06 13:20:48;;;;;;;10.77;9.45;;;3.90;99.90;;;;;;5024018;28;20072;-83
2022/12/06 13:23:19;;;;;;;12.45;11.10;;;3.90;99.90;;;;;;5012539;28;20053;-83
2022/12/06 13:26:16;;;;;;;12.40;10.10;;;4.00;99.90;;;;;;5016274;28;20049;-83